Time;durP1;ratioP1;P1;durP2;ratioP2;P2;SDS_P1;SDS_P2;PMS_P1;PMS_P2;Temp;Humidity;BMP_temperature;BMP_pressure;BME280_temperature;BME280_humidity;BME280_pressure;Samples;Min_cycle;Max_cycle;Signal;HPM_P1;HPM_P2
2022/03/03 00:01:44;;;;;;;7.10;6.80;;;;;;;0.03;100.00;100546.09;5088023;28;20086;-70
2022/03/03 00:04:11;;;;;;;8.00;7.55;;;;;;;0.02;100.00;100547.03;5074639;28;20066;-68
2022/03/03 00:06:37;;;;;;;7.22;6.88;;;;;;;-0.06;100.00;100539.75;5073034;28;20020;-68
2022/03/03 00:09:04;;;;;;;8.60;8.07;;;;;;;0.00;100.00;100552.38;5072126;28;20506;-68
2022/03/03 00:11:30;;;;;;;7.70;7.30;;;;;;;0.03;100.00;100548.69;5073546;28;20040;-69
2022/03/03 00:13:56;;;;;;;8.20;7.70;;;;;;;0.10;100.00;100560.38;5072483;28;20024;-69
2022/03/03 00:16:24;;;;;;;7.60;7.20;;;;;;;0.08;100.00;100555.28;5084861;28;20119;-69
2022/03/03 00:18:50;;;;;;;7.38;6.97;;;;;;;0.02;100.00;100547.88;5071006;28;20234;-68
2022/03/03 00:21:16;;;;;;;7.05;6.75;;;;;;;-0.02;100.00;100549.00;5072395;28;20016;-67
2022/03/03 00:23:42;;;;;;;7.78;7.38;;;;;;;0.02;100.00;100552.25;5071120;28;20036;-67
2022/03/03 00:26:07;;;;;;;7.80;7.40;;;;;;;0.07;100.00;100555.34;5071622;28;20054;-70
2022/03/03 00:28:33;;;;;;;8.40;7.90;;;;;;;0.04;100.00;100552.97;5071097;28;20074;-70
2022/03/03 00:30:59;;;;;;;7.18;6.78;;;;;;;0.09;100.00;100548.28;5076753;28;20027;-71
2022/03/03 00:33:24;;;;;;;7.35;6.95;;;;;;;0.02;100.00;100549.66;5073993;28;20734;-69
2022/03/03 00:35:50;;;;;;;7.47;7.07;;;;;;;-0.05;100.00;100530.97;5073696;28;20070;-69
2022/03/03 00:38:16;;;;;;;8.05;7.57;;;;;;;0.06;100.00;100541.47;5071207;28;20028;-69
2022/03/03 00:40:41;;;;;;;7.10;6.78;;;;;;;0.01;100.00;100538.38;5073528;28;20035;-70
2022/03/03 00:43:08;;;;;;;7.40;7.00;;;;;;;0.02;100.00;100542.66;5055895;28;20525;-69
2022/03/03 00:45:34;;;;;;;7.88;7.45;;;;;;;0.01;100.00;100547.97;5070885;28;20086;-69
2022/03/03 00:48:01;;;;;;;7.22;6.82;;;;;;;-0.11;100.00;100529.63;5072861;28;20025;-69
2022/03/03 00:50:26;;;;;;;7.35;6.95;;;;;;;0.05;100.00;100542.44;5071893;28;20032;-68
2022/03/03 00:52:52;;;;;;;8.50;8.00;;;;;;;-0.02;100.00;100538.56;5072009;28;20384;-67
2022/03/03 00:55:18;;;;;;;7.63;7.22;;;;;;;0.01;100.00;100543.59;5075537;28;20488;-68
2022/03/03 00:57:43;;;;;;;6.95;6.65;;;;;;;0.02;100.00;100540.06;5071602;28;20041;-68
2022/03/03 01:00:09;;;;;;;7.55;7.15;;;;;;;0.02;100.00;100539.22;5072650;28;20492;-67
2022/03/03 01:02:35;;;;;;;8.13;7.63;;;;;;;-0.09;100.00;100526.91;5068067;28;20028;-69
2022/03/03 01:05:00;;;;;;;8.57;8.07;;;;;;;-0.02;100.00;100522.94;5072171;28;20391;-68
2022/03/03 01:07:26;;;;;;;7.18;6.80;;;;;;;-0.04;100.00;100523.03;5087342;28;20495;-69
2022/03/03 01:09:51;;;;;;;7.35;6.95;;;;;;;0.07;100.00;100537.09;5071715;28;20068;-69
2022/03/03 01:12:17;;;;;;;7.00;6.65;;;;;;;0.06;100.00;100527.63;5070609;28;20040;-70
2022/03/03 01:14:43;;;;;;;7.70;7.30;;;;;;;0.05;100.00;100534.59;5071794;28;20036;-70
2022/03/03 01:17:10;;;;;;;7.80;7.40;;;;;;;0.05;100.00;100528.56;5062168;28;20086;-70
2022/03/03 01:19:36;;;;;;;8.20;7.70;;;;;;;0.06;100.00;100530.22;5072989;28;20394;-69
2022/03/03 01:22:02;;;;;;;7.22;6.85;;;;;;;0.02;100.00;100513.97;5071469;28;20028;-67
2022/03/03 01:24:27;;;;;;;7.60;7.20;;;;;;;0.06;100.00;100523.22;5071684;28;20045;-66
2022/03/03 01:26:53;;;;;;;7.15;6.78;;;;;;;0.04;100.00;100525.13;5071385;28;20028;-65
2022/03/03 01:29:19;;;;;;;8.18;7.68;;;;;;;0.06;100.00;100518.00;5070865;28;20107;-66
2022/03/03 01:31:44;;;;;;;8.02;7.53;;;;;;;0.01;100.00;100517.53;5071287;28;20103;-66
2022/03/03 01:34:10;;;;;;;8.13;7.63;;;;;;;0.01;100.00;100521.91;5071867;28;20039;-67
2022/03/03 01:36:36;;;;;;;7.32;6.93;;;;;;;-0.02;100.00;100513.34;5088754;28;20032;-67
2022/03/03 01:39:03;;;;;;;7.32;6.93;;;;;;;-0.03;100.00;100509.06;5071621;28;20032;-66
2022/03/03 01:41:29;;;;;;;7.25;6.85;;;;;;;-0.03;100.00;100513.44;5071619;28;20375;-65
2022/03/03 01:43:55;;;;;;;7.60;7.20;;;;;;;-0.04;100.00;100515.22;5068107;28;20032;-66
2022/03/03 01:46:20;;;;;;;7.57;7.18;;;;;;;-0.03;100.00;100508.22;5051664;28;20042;-67
2022/03/03 01:48:46;;;;;;;7.50;7.10;;;;;;;0.02;100.00;100503.53;5071664;28;20035;-67
2022/03/03 01:51:12;;;;;;;7.45;7.05;;;;;;;0.04;100.00;100496.44;5070898;28;20063;-66
2022/03/03 01:53:38;;;;;;;7.72;7.32;;;;;;;0.08;100.00;100510.94;5072623;28;20036;-66
2022/03/03 01:56:05;;;;;;;8.40;7.90;;;;;;;0.05;100.00;100503.31;5069395;28;20028;-65
2022/03/03 01:58:31;;;;;;;7.53;7.13;;;;;;;0.07;100.00;100503.19;5055747;28;20135;-68
2022/03/03 02:00:57;;;;;;;7.93;7.45;;;;;;;0.05;100.00;100498.09;5069934;28;20028;-66
2022/03/03 02:03:22;;;;;;;7.10;6.75;;;;;;;0.02;100.00;100495.72;5070225;28;20078;-65
2022/03/03 02:05:49;;;;;;;7.10;6.75;;;;;;;-0.02;100.00;100496.84;5071172;28;20032;-66
2022/03/03 02:08:14;;;;;;;7.65;7.25;;;;;;;-0.01;100.00;100495.91;5070297;28;20120;-67
2022/03/03 02:10:40;;;;;;;7.40;7.00;;;;;;;0.04;100.00;100496.44;5071403;28;20137;-67
2022/03/03 02:13:06;;;;;;;8.00;7.57;;;;;;;-0.03;100.00;100500.41;5067014;28;20693;-66
2022/03/03 02:15:32;;;;;;;8.80;8.25;;;;;;;-0.04;100.00;100494.38;5069188;28;20032;-65
2022/03/03 02:17:57;;;;;;;7.70;7.30;;;;;;;-0.07;100.00;100496.38;5069629;28;20463;-66
2022/03/03 02:20:24;;;;;;;7.68;7.28;;;;;;;-0.05;100.00;100497.09;5069104;28;20028;-67
2022/03/03 02:22:51;;;;;;;7.57;7.18;;;;;;;-0.07;100.00;100496.38;5069871;28;20379;-68
2022/03/03 02:25:17;;;;;;;7.65;7.25;;;;;;;-0.08;100.00;100490.28;5069841;28;20522;-65
2022/03/03 02:27:44;;;;;;;8.20;7.70;;;;;;;-0.12;100.00;100488.03;5065614;28;20058;-66
2022/03/03 02:30:11;;;;;;;6.90;6.60;;;;;;;-0.13;100.00;100487.19;5071572;28;20025;-67
2022/03/03 02:32:37;;;;;;;7.60;7.20;;;;;;;-0.23;100.00;100482.72;5068905;28;20028;-65
2022/03/03 02:35:04;;;;;;;7.10;6.75;;;;;;;-0.11;100.00;100480.09;5069542;28;20028;-67
2022/03/03 02:37:43;;;;;;;7.95;7.47;;;;;;;-0.13;100.00;100475.94;5070079;28;20021;-65
2022/03/03 02:40:11;;;;;;;7.53;7.13;;;;;;;-0.10;100.00;100470.50;5067278;28;20028;-65
2022/03/03 02:42:37;;;;;;;7.40;7.00;;;;;;;-0.18;100.00;100478.00;5068006;28;20028;-64
2022/03/03 02:45:03;;;;;;;9.77;9.07;;;;;;;0.26;100.00;100475.69;5068574;28;20064;-65
2022/03/03 02:47:29;;;;;;;7.85;7.43;;;;;;;0.02;100.00;100480.06;5067068;28;20032;-65
2022/03/03 02:49:55;;;;;;;7.82;7.43;;;;;;;-0.08;100.00;100472.03;5069997;28;20062;-65
2022/03/03 02:52:20;;;;;;;7.28;6.88;;;;;;;-0.07;100.00;100478.13;5070045;28;20108;-64
2022/03/03 02:54:46;;;;;;;7.20;6.80;;;;;;;-0.07;100.00;100462.47;5069120;28;20039;-64
2022/03/03 02:59:56;;;;;;;7.30;6.90;;;;;;;-0.08;100.00;100471.22;5069748;28;20075;-64
2022/03/03 03:02:21;;;;;;;7.60;7.20;;;;;;;-0.09;100.00;100466.94;5071065;28;20052;-64
2022/03/03 03:04:47;;;;;;;7.60;7.20;;;;;;;-0.07;100.00;100463.31;5072182;28;20412;-65
2022/03/03 03:07:12;;;;;;;8.07;7.60;;;;;;;-0.11;100.00;100459.22;5075385;28;20028;-66
2022/03/03 03:09:38;;;;;;;7.72;7.32;;;;;;;-0.17;100.00;100464.03;5074792;28;20533;-67
2022/03/03 03:12:04;;;;;;;8.15;7.65;;;;;;;-0.08;100.00;100471.22;5074308;28;20095;-65
2022/03/03 03:14:30;;;;;;;7.13;6.72;;;;;;;-0.08;100.00;100466.00;5076674;28;20051;-65
2022/03/03 03:16:56;;;;;;;8.27;7.78;;;;;;;-0.12;100.00;100467.16;5074558;28;20056;-66
2022/03/03 03:19:22;;;;;;;7.43;7.03;;;;;;;-0.09;100.00;100459.13;5073693;28;20475;-65
2022/03/03 03:21:47;;;;;;;7.25;6.88;;;;;;;-0.11;100.00;100463.59;5075049;28;20051;-65
2022/03/03 03:24:13;;;;;;;7.97;7.50;;;;;;;-0.08;100.00;100455.56;5067142;28;20115;-66
2022/03/03 03:26:39;;;;;;;7.63;7.22;;;;;;;-0.06;100.00;100458.91;5074522;28;20074;-66
2022/03/03 03:29:04;;;;;;;7.40;7.00;;;;;;;-0.05;100.00;100460.56;5074854;28;20558;-66
2022/03/03 03:31:30;;;;;;;7.65;7.25;;;;;;;-0.04;100.00;100457.03;5075264;28;20056;-66
2022/03/03 03:33:56;;;;;;;7.75;7.35;;;;;;;-0.10;100.00;100455.69;5074266;28;20468;-66
2022/03/03 03:36:22;;;;;;;7.88;7.40;;;;;;;-0.07;100.00;100462.47;5074621;28;20024;-66
2022/03/03 03:38:48;;;;;;;7.25;6.85;;;;;;;-0.09;100.00;100461.72;5083043;28;20028;-66
2022/03/03 03:41:14;;;;;;;7.10;6.75;;;;;;;-0.10;100.00;100460.06;5072992;28;20016;-65
2022/03/03 03:43:39;;;;;;;7.38;6.97;;;;;;;-0.07;100.00;100462.47;5074531;28;20403;-66
2022/03/03 03:46:05;;;;;;;7.50;7.10;;;;;;;0.01;100.00;100460.16;5074477;28;20036;-66
2022/03/03 03:48:31;;;;;;;7.55;7.15;;;;;;;-0.02;100.00;100463.78;5074510;28;20024;-66
2022/03/03 03:50:56;;;;;;;6.45;6.15;;;;;;;-0.03;100.00;100456.91;5070777;28;20112;-65
2022/03/03 03:53:23;;;;;;;7.65;7.25;;;;;;;-0.13;100.00;100448.09;5072960;28;20028;-66
2022/03/03 03:55:50;;;;;;;7.97;7.50;;;;;;;-0.19;100.00;100451.13;5073322;28;20149;-65
2022/03/03 03:58:16;;;;;;;7.82;7.43;;;;;;;-0.05;100.00;100457.97;5072596;28;20048;-65
2022/03/03 04:00:42;;;;;;;7.47;7.07;;;;;;;-0.03;100.00;100464.72;5074300;28;20514;-66
2022/03/03 04:03:07;;;;;;;7.80;7.35;;;;;;;-0.01;100.00;100462.00;5073197;28;20451;-65
2022/03/03 04:05:33;;;;;;;7.43;7.03;;;;;;;-0.06;100.00;100457.13;5074053;28;20082;-66
2022/03/03 04:07:58;;;;;;;7.85;7.38;;;;;;;-0.11;100.00;100456.63;5073793;28;20570;-65
2022/03/03 04:10:24;;;;;;;7.57;7.18;;;;;;;-0.09;100.00;100446.06;5073078;28;20024;-65
2022/03/03 04:12:49;;;;;;;8.15;7.68;;;;;;;-0.06;100.00;100456.31;5072315;28;20024;-66
2022/03/03 04:15:15;;;;;;;7.57;7.18;;;;;;;-0.06;100.00;100451.09;5073568;28;20054;-66
2022/03/03 04:17:41;;;;;;;8.68;8.15;;;;;;;-0.06;100.00;100451.09;5072834;28;20078;-65
2022/03/03 04:20:07;;;;;;;7.82;7.43;;;;;;;-0.04;100.00;100455.25;5073714;28;20361;-66
2022/03/03 04:22:34;;;;;;;7.97;7.55;;;;;;;-0.03;100.00;100458.69;5073448;28;20025;-65
2022/03/03 04:24:59;;;;;;;6.80;6.50;;;;;;;-0.06;100.00;100453.69;5072397;28;20135;-64
2022/03/03 04:27:25;;;;;;;8.00;7.55;;;;;;;-0.06;100.00;100453.69;5073530;28;20029;-65
2022/03/03 04:29:50;;;;;;;8.13;7.63;;;;;;;-0.07;100.00;100446.81;5087778;28;20032;-65
2022/03/03 04:32:16;;;;;;;7.75;7.35;;;;;;;-0.02;100.00;100452.53;5080973;28;20077;-65
2022/03/03 04:34:42;;;;;;;7.90;7.50;;;;;;;-0.01;100.00;100444.59;5076828;28;20062;-65
2022/03/03 04:37:08;;;;;;;8.20;7.70;;;;;;;-0.03;100.00;100449.09;5073318;28;20441;-66
2022/03/03 04:39:33;;;;;;;7.72;7.32;;;;;;;0.01;100.00;100443.66;5072994;28;20029;-65
2022/03/03 04:42:00;;;;;;;8.27;7.78;;;;;;;-0.04;100.00;100437.00;5074561;28;20099;-66
2022/03/03 04:44:26;;;;;;;7.57;7.18;;;;;;;-0.03;100.00;100443.88;5085640;28;20027;-66
2022/03/03 04:46:52;;;;;;;7.60;7.20;;;;;;;-0.10;100.00;100431.38;5076497;28;20029;-65
2022/03/03 04:49:17;;;;;;;8.13;7.65;;;;;;;-0.05;100.00;100443.16;5064052;28;20035;-66
2022/03/03 04:51:43;;;;;;;7.93;7.53;;;;;;;-0.07;100.00;100439.84;5072689;28;20029;-65
2022/03/03 04:54:09;;;;;;;7.75;7.35;;;;;;;-0.11;100.00;100433.16;5073513;28;20032;-65
2022/03/03 04:56:37;;;;;;;8.35;7.85;;;;;;;-0.08;100.00;100435.53;5072954;28;20037;-64
2022/03/03 04:59:03;;;;;;;8.43;7.93;;;;;;;-0.09;100.00;100436.47;5071586;28;20059;-65
2022/03/03 05:01:28;;;;;;;7.53;7.13;;;;;;;-0.13;100.00;100444.66;5072956;28;20017;-65
2022/03/03 05:03:54;;;;;;;8.40;7.90;;;;;;;-0.11;100.00;100442.75;5074069;28;20020;-65
2022/03/03 05:06:19;;;;;;;8.02;7.55;;;;;;;-0.13;100.00;100440.25;5073016;28;20395;-65
2022/03/03 05:08:45;;;;;;;9.10;8.50;;;;;;;-0.08;100.00;100442.53;5072922;28;20521;-65
2022/03/03 05:11:10;;;;;;;7.60;7.20;;;;;;;-0.07;100.00;100444.22;5074147;28;20028;-65
2022/03/03 05:13:37;;;;;;;8.00;7.57;;;;;;;-0.07;100.00;100444.22;5071845;28;20075;-65
2022/03/03 05:16:03;;;;;;;7.57;7.18;;;;;;;-0.09;100.00;100440.84;5072605;28;20020;-65
2022/03/03 05:18:30;;;;;;;8.15;7.70;;;;;;;-0.10;100.00;100442.63;5072873;28;20119;-65
2022/03/03 05:20:55;;;;;;;9.73;9.05;;;;;;;-0.13;100.00;100429.00;5071481;28;20103;-65
2022/03/03 05:23:22;;;;;;;7.65;7.25;;;;;;;-0.06;100.00;100435.44;5072518;28;20551;-64
2022/03/03 05:25:47;;;;;;;8.25;7.75;;;;;;;-0.05;100.00;100435.34;5071662;28;20040;-65
2022/03/03 05:28:13;;;;;;;9.00;8.40;;;;;;;-0.13;100.00;100421.19;5072356;28;20442;-65
2022/03/03 05:30:39;;;;;;;7.65;7.25;;;;;;;-0.13;100.00;100439.44;5072480;28;20092;-66
2022/03/03 05:33:04;;;;;;;8.25;7.75;;;;;;;-0.09;100.00;100435.66;5071928;28;20024;-65
2022/03/03 05:35:30;;;;;;;7.60;7.20;;;;;;;-0.06;100.00;100445.88;5071446;28;20052;-66
2022/03/03 05:37:55;;;;;;;8.43;7.93;;;;;;;-0.06;100.00;100444.09;5071634;28;20399;-65
2022/03/03 05:40:21;;;;;;;7.97;7.50;;;;;;;0.01;100.00;100438.47;5072119;28;20047;-65
2022/03/03 05:42:46;;;;;;;8.60;8.07;;;;;;;-0.06;100.00;100428.47;5071696;28;20047;-65
2022/03/03 05:45:12;;;;;;;10.90;10.10;;;;;;;-0.02;100.00;100435.09;5071515;28;20419;-65
2022/03/03 05:47:38;;;;;;;7.63;7.22;;;;;;;-0.08;100.00;100437.31;5087156;28;20073;-65
2022/03/03 05:50:06;;;;;;;8.55;8.05;;;;;;;-0.10;100.00;100426.16;5081463;28;20032;-66
2022/03/03 05:52:31;;;;;;;8.00;7.55;;;;;;;-0.05;100.00;100429.28;5104679;28;20032;-66
2022/03/03 05:54:57;;;;;;;8.68;8.10;;;;;;;-0.07;100.00;100434.63;5071252;28;20745;-65
2022/03/03 05:57:34;;;;;;;8.27;7.78;;;;;;;0.08;100.00;100445.72;5071480;28;20064;-66
2022/03/03 06:00:06;;;;;;;9.00;8.40;;;;;;;0.04;100.00;100428.63;5071270;28;20518;-65
2022/03/03 06:02:31;;;;;;;11.27;10.38;;;;;;;0.02;100.00;100437.50;5070707;28;20032;-65
2022/03/03 06:04:57;;;;;;;8.40;7.90;;;;;;;0.07;100.00;100444.03;5068988;28;20090;-66
2022/03/03 06:07:25;;;;;;;7.93;7.53;;;;;;;0.10;100.00;100449.06;5084817;28;20400;-66
2022/03/03 06:09:57;;;;;;;8.65;8.15;;;;;;;0.07;100.00;100444.03;5070362;28;20028;-64
2022/03/03 06:12:41;;;;;;;7.93;7.45;;;;;;;0.12;100.00;100439.34;5072730;28;20578;-64
2022/03/03 06:15:07;;;;;;;7.72;7.32;;;;;;;0.08;100.00;100443.13;5071546;28;20403;-64
2022/03/03 06:17:34;;;;;;;8.27;7.78;;;;;;;0.16;100.00;100443.41;5087166;28;20036;-65
2022/03/03 06:20:01;;;;;;;7.43;7.03;;;;;;;0.12;100.00;100441.13;5071370;28;20029;-63
2022/03/03 06:22:27;;;;;;;7.35;6.97;;;;;;;0.03;100.00;100426.13;5068855;28;20063;-66
2022/03/03 06:24:53;;;;;;;7.80;7.40;;;;;;;0.05;100.00;100432.91;5066539;28;20452;-66
2022/03/03 06:27:18;;;;;;;8.65;8.15;;;;;;;0.07;100.00;100438.81;5072197;28;20024;-65
2022/03/03 06:29:44;;;;;;;8.25;7.75;;;;;;;0.10;100.00;100445.63;5071372;28;20024;-65
2022/03/03 06:32:11;;;;;;;7.43;7.03;;;;;;;0.16;100.00;100446.00;5068808;28;20127;-65
2022/03/03 06:34:37;;;;;;;8.20;7.70;;;;;;;0.09;100.00;100442.19;5071687;28;20037;-66
2022/03/03 06:37:03;;;;;;;7.72;7.32;;;;;;;0.06;100.00;100442.38;5070792;28;20029;-65
2022/03/03 06:39:29;;;;;;;7.32;6.93;;;;;;;0.01;100.00;100441.06;5070443;28;20020;-66
2022/03/03 06:41:55;;;;;;;9.20;8.60;;;;;;;0.12;100.00;100449.78;5070712;28;20089;-66
2022/03/03 06:44:20;;;;;;;7.82;7.43;;;;;;;0.13;100.00;100451.44;5085551;28;20052;-65
2022/03/03 06:46:47;;;;;;;8.10;7.60;;;;;;;0.03;100.00;100452.22;5071432;28;20083;-66
2022/03/03 06:49:12;;;;;;;8.40;7.90;;;;;;;0.03;100.00;100453.03;5086105;28;20812;-66
2022/03/03 06:51:41;;;;;;;8.13;7.68;;;;;;;0.10;100.00;100453.44;5059004;28;20079;-65
2022/03/03 06:54:12;;;;;;;7.60;7.20;;;;;;;0.08;100.00;100447.50;5071154;28;20154;-65
2022/03/03 06:56:46;;;;;;;7.63;7.22;;;;;;;0.11;100.00;100448.09;5070429;28;20036;-67
2022/03/03 06:59:14;;;;;;;8.00;7.53;;;;;;;0.08;100.00;100445.72;5070200;28;20100;-66
2022/03/03 07:01:41;;;;;;;8.13;7.63;;;;;;;0.04;100.00;100439.06;5070539;28;20268;-65
2022/03/03 07:04:08;;;;;;;8.65;8.15;;;;;;;0.11;100.00;100435.06;5064863;28;20024;-69
2022/03/03 07:06:34;;;;;;;7.43;7.03;;;;;;;0.19;100.00;100437.13;5066077;28;20024;-67
2022/03/03 07:09:01;;;;;;;8.52;8.02;;;;;;;0.07;100.00;100445.81;5071930;28;20035;-68
2022/03/03 07:11:29;;;;;;;7.90;7.47;;;;;;;0.19;100.00;100445.78;5069394;28;20550;-67
2022/03/03 07:13:57;;;;;;;7.63;7.22;;;;;;;0.20;100.00;100455.25;5067458;28;20036;-67
2022/03/03 07:16:38;;;;;;;8.38;7.88;;;;;;;0.21;100.00;100448.28;5070686;28;20041;-67
2022/03/03 07:19:07;;;;;;;7.60;7.20;;;;;;;0.29;100.00;100453.75;5066916;28;20395;-66
2022/03/03 07:22:11;;;;;;;8.48;7.97;;;;;;;0.35;100.00;100457.72;5068991;28;20029;-65
2022/03/03 07:24:51;;;;;;;8.68;8.13;;;;;;;0.39;100.00;100456.56;5052589;28;20048;-66
2022/03/03 07:27:21;;;;;;;7.68;7.28;;;;;;;0.32;100.00;100460.56;5064652;28;20082;-65
2022/03/03 07:29:55;;;;;;;7.75;7.35;;;;;;;0.40;100.00;100458.22;5071543;28;20051;-65
2022/03/03 07:32:34;;;;;;;7.75;7.32;;;;;;;0.44;100.00;100462.25;5068158;28;20074;-70
2022/03/03 07:35:07;;;;;;;7.75;7.35;;;;;;;0.55;100.00;100457.09;5067320;28;20028;-67
2022/03/03 07:37:40;;;;;;;8.15;7.65;;;;;;;0.71;100.00;100457.63;5068689;28;20427;-67
2022/03/03 07:40:08;;;;;;;7.97;7.50;;;;;;;0.60;100.00;100443.72;5068435;28;20120;-67
2022/03/03 07:42:35;;;;;;;7.85;7.40;;;;;;;0.72;100.00;100455.84;5070302;28;20036;-67
2022/03/03 07:45:03;;;;;;;7.60;7.20;;;;;;;0.71;100.00;100449.81;5071886;28;20421;-67
2022/03/03 07:47:29;;;;;;;7.20;6.80;;;;;;;0.87;100.00;100451.28;5062630;28;20035;-67
2022/03/03 07:49:56;;;;;;;7.68;7.28;;;;;;;1.01;100.00;100448.47;5070637;28;20021;-68
2022/03/03 07:52:22;;;;;;;7.38;6.97;;;;;;;0.85;100.00;100448.78;5072173;28;20115;-66
2022/03/03 07:54:47;;;;;;;7.93;7.45;;;;;;;0.76;100.00;100444.25;5075556;28;20044;-67
2022/03/03 07:57:16;;;;;;;8.60;8.10;;;;;;;0.76;100.00;100439.88;5074056;28;20067;-67
2022/03/03 07:59:47;;;;;;;7.63;7.22;;;;;;;0.85;100.00;100440.94;5073506;28;20573;-67
2022/03/03 08:02:21;;;;;;;7.85;7.38;;;;;;;0.93;100.00;100449.03;5075759;28;20440;-67
2022/03/03 08:04:46;;;;;;;8.77;8.20;;;;;;;0.88;100.00;100448.53;5074309;28;20020;-67
2022/03/03 08:07:14;;;;;;;7.55;7.15;;;;;;;0.82;100.00;100443.81;5056697;28;20032;-67
2022/03/03 08:09:41;;;;;;;7.63;7.22;;;;;;;0.95;100.00;100441.09;5074520;28;20071;-67
2022/03/03 08:12:07;;;;;;;7.10;6.75;;;;;;;0.94;100.00;100436.81;5071599;28;20127;-66
2022/03/03 08:14:34;;;;;;;7.75;7.32;;;;;;;0.93;100.00;100438.59;5065772;28;20037;-67
2022/03/03 08:17:00;;;;;;;7.55;7.15;;;;;;;0.77;100.00;100443.31;5073259;28;20035;-67
2022/03/03 08:19:26;;;;;;;7.78;7.32;;;;;;;0.96;100.00;100443.59;5073841;28;20522;-67
2022/03/03 08:21:51;;;;;;;8.40;7.90;;;;;;;1.10;100.00;100442.53;5073614;28;20052;-66
2022/03/03 08:24:17;;;;;;;7.57;7.18;;;;;;;1.19;100.00;100435.81;5089130;28;20037;-68
2022/03/03 08:26:45;;;;;;;7.65;7.25;;;;;;;0.98;100.00;100427.81;5073615;28;20028;-67
2022/03/03 08:29:11;;;;;;;8.27;7.78;;;;;;;1.13;100.00;100434.50;5073620;28;20365;-67
2022/03/03 08:31:42;;;;;;;7.45;7.05;;;;;;;1.13;100.00;100431.88;5072158;28;20024;-67
2022/03/03 08:34:47;;;;;;;7.00;6.70;;;;;;;1.19;100.00;100434.03;5073770;28;20048;-67
2022/03/03 08:37:29;;;;;;;;;;;;;;;1.07;100.00;100438.41;5089314;28;20029;-68
2022/03/03 08:39:57;;;;;;;8.35;7.85;;;;;;;1.18;100.00;100434.97;5073280;28;19919;-69
2022/03/03 08:42:26;;;;;;;7.38;6.97;;;;;;;1.16;100.00;100439.47;5068624;28;20107;-68
2022/03/03 08:44:53;;;;;;;7.85;7.43;;;;;;;1.23;100.00;100435.44;5070264;28;20086;-67
2022/03/03 08:47:21;;;;;;;7.53;7.13;;;;;;;1.17;100.00;100424.63;5074640;28;20176;-67
2022/03/03 08:49:56;;;;;;;7.82;7.43;;;;;;;1.00;100.00;100424.13;5073279;28;20032;-67
2022/03/03 08:52:22;;;;;;;8.18;7.70;;;;;;;1.07;100.00;100427.13;5073219;28;20074;-67
2022/03/03 08:54:47;;;;;;;7.45;7.05;;;;;;;1.22;100.00;100425.13;5073350;28;20108;-68
2022/03/03 08:57:12;;;;;;;7.20;6.80;;;;;;;1.20;100.00;100424.41;5071994;28;20103;-67
2022/03/03 08:59:38;;;;;;;8.60;8.10;;;;;;;1.30;100.00;100428.78;5072449;28;20052;-67
2022/03/03 09:02:03;;;;;;;7.93;7.53;;;;;;;1.40;100.00;100428.94;5074134;28;20023;-67
2022/03/03 09:04:29;;;;;;;7.38;6.97;;;;;;;1.49;100.00;100419.56;5072914;28;20037;-67
2022/03/03 09:06:54;;;;;;;7.30;6.90;;;;;;;1.29;100.00;100421.91;5074509;28;20028;-68
2022/03/03 09:09:20;;;;;;;7.43;7.03;;;;;;;1.50;100.00;100416.81;5072875;28;20032;-66
2022/03/03 09:11:45;;;;;;;7.80;7.40;;;;;;;1.42;100.00;100434.88;5071408;28;20024;-68
2022/03/03 09:14:11;;;;;;;7.50;7.10;;;;;;;1.43;100.00;100430.47;5072906;28;20067;-66
2022/03/03 09:16:36;;;;;;;7.80;7.40;;;;;;;1.56;100.00;100437.25;5072390;28;20116;-67
2022/03/03 09:19:02;;;;;;;8.60;8.10;;;;;;;1.52;100.00;100432.38;5072678;28;20111;-67
2022/03/03 09:21:28;;;;;;;7.93;7.53;;;;;;;1.50;100.00;100434.28;5088082;28;20036;-67
2022/03/03 09:23:54;;;;;;;7.32;6.93;;;;;;;1.69;100.00;100431.91;5072763;28;20029;-67
2022/03/03 09:26:20;;;;;;;7.32;6.93;;;;;;;1.48;100.00;100425.75;5071436;28;20047;-66
2022/03/03 09:28:46;;;;;;;7.28;6.90;;;;;;;1.57;100.00;100431.06;5072901;28;20065;-67
2022/03/03 09:31:11;;;;;;;7.80;7.40;;;;;;;1.73;100.00;100438.56;5074276;28;20032;-67
2022/03/03 09:33:37;;;;;;;8.23;7.72;;;;;;;1.87;100.00;100427.84;5070803;28;20039;-67
2022/03/03 09:36:02;;;;;;;7.53;7.13;;;;;;;2.03;100.00;100432.69;5072272;28;20077;-67
2022/03/03 09:38:28;;;;;;;7.30;6.90;;;;;;;2.16;100.00;100429.91;5072432;28;20036;-67
2022/03/03 09:40:53;;;;;;;8.82;8.30;;;;;;;2.24;100.00;100431.91;5072533;28;20475;-67
2022/03/03 09:43:19;;;;;;;8.05;7.60;;;;;;;2.24;100.00;100431.91;5072154;28;20073;-67
2022/03/03 09:45:45;;;;;;;8.38;7.88;;;;;;;2.11;100.00;100426.84;5071868;28;20031;-66
2022/03/03 09:48:11;;;;;;;9.15;8.57;;;;;;;2.15;100.00;100428.25;5071874;28;20475;-68
2022/03/03 09:50:39;;;;;;;8.63;8.13;;;;;;;2.22;100.00;100422.41;5072247;28;20055;-68
2022/03/03 09:53:13;;;;;;;7.78;7.38;;;;;;;2.13;100.00;100423.16;5073237;28;20029;-67
2022/03/03 09:55:40;;;;;;;7.93;7.53;;;;;;;2.11;100.00;100424.22;5087514;28;20035;-68
2022/03/03 09:58:06;;;;;;;7.90;7.50;;;;;;;2.10;100.00;100417.31;5071913;28;20044;-67
2022/03/03 10:00:37;;;;;;;7.75;7.35;;;;;;;2.10;100.00;100420.78;5071891;28;20017;-67
2022/03/03 10:03:09;;;;;;;7.50;7.10;;;;;;;2.03;100.00;100422.22;5071760;28;20150;-67
2022/03/03 10:05:42;;;;;;;7.90;7.50;;;;;;;2.12;100.00;100420.63;5088843;28;20114;-67
2022/03/03 10:08:11;;;;;;;8.23;7.72;;;;;;;2.17;100.00;100415.88;5071796;28;20055;-67
2022/03/03 10:10:39;;;;;;;8.63;8.13;;;;;;;2.17;100.00;100418.50;5071469;28;20373;-67
2022/03/03 10:13:06;;;;;;;8.30;7.80;;;;;;;2.19;100.00;100421.81;5070053;28;20028;-67
2022/03/03 10:15:33;;;;;;;7.10;6.80;;;;;;;2.42;100.00;100410.34;5072597;28;20020;-69
2022/03/03 10:18:03;;;;;;;8.70;8.20;;;;;;;2.46;100.00;100418.75;5054177;28;20045;-67
2022/03/03 10:20:37;;;;;;;7.57;7.18;;;;;;;2.47;100.00;100409.94;5070805;28;20479;-66
2022/03/03 10:23:08;;;;;;;7.95;7.55;;;;;;;2.62;100.00;100397.38;5070932;28;20124;-67
2022/03/03 10:25:37;;;;;;;7.35;6.97;;;;;;;2.45;100.00;100404.00;5070752;28;20081;-67
2022/03/03 10:28:21;;;;;;;8.30;7.80;;;;;;;2.39;100.00;100401.88;5071404;28;20173;-67
2022/03/03 10:31:06;;;;;;;7.90;7.50;;;;;;;2.43;100.00;100401.53;5071058;28;20024;-67
2022/03/03 10:33:33;;;;;;;8.20;7.70;;;;;;;2.20;100.00;100400.78;5063366;28;20064;-67
2022/03/03 10:36:15;;;;;;;7.70;7.30;;;;;;;2.36;100.00;100400.34;5058838;28;20037;-67
2022/03/03 10:38:57;;;;;;;7.72;7.32;;;;;;;2.48;100.00;100406.34;5054835;28;20035;-67
2022/03/03 10:41:40;;;;;;;7.68;7.28;;;;;;;2.29;100.00;100407.03;5069809;28;20500;-67
2022/03/03 10:44:20;;;;;;;7.93;7.50;;;;;;;2.11;100.00;100404.13;5071194;28;20051;-67
2022/03/03 10:47:05;;;;;;;7.45;7.05;;;;;;;2.28;100.00;100402.78;5071177;28;20048;-68
2022/03/03 10:49:31;;;;;;;7.00;6.70;;;;;;;2.38;100.00;100387.97;5071214;28;20054;-67
2022/03/03 10:52:24;;;;;;;7.85;7.45;;;;;;;2.26;100.00;100399.44;5071266;28;20020;-67
2022/03/03 10:55:13;;;;;;;7.28;6.93;;;;;;;2.42;100.00;100394.63;5065870;28;20048;-67
2022/03/03 10:57:43;;;;;;;7.60;7.20;;;;;;;2.69;100.00;100388.06;5071036;28;20033;-68
2022/03/03 11:00:10;;;;;;;7.30;6.90;;;;;;;2.56;100.00;100390.03;5071295;28;20038;-67
2022/03/03 11:02:40;;;;;;;7.30;6.93;;;;;;;2.52;100.00;100394.69;5060656;28;20028;-67
2022/03/03 11:05:09;;;;;;;7.97;7.57;;;;;;;2.49;100.00;100389.69;5061060;28;20021;-68
2022/03/03 11:07:35;;;;;;;7.18;6.85;;;;;;;2.64;100.00;100377.13;5071302;28;20040;-68
2022/03/03 11:10:01;;;;;;;8.77;8.27;;;;;;;2.94;100.00;100379.81;5072237;28;20392;-67
2022/03/03 11:12:28;;;;;;;8.40;7.90;;;;;;;3.23;100.00;100379.13;5070542;28;20025;-67
2022/03/03 11:14:55;;;;;;;7.55;7.15;;;;;;;3.05;100.00;100374.47;5070913;28;20028;-67
2022/03/03 11:17:21;;;;;;;8.63;8.13;;;;;;;3.55;100.00;100377.19;5086431;28;20085;-66
2022/03/03 11:19:51;;;;;;;7.70;7.30;;;;;;;3.85;100.00;100376.28;5070803;28;20581;-67
2022/03/03 11:22:16;;;;;;;7.85;7.45;;;;;;;3.61;100.00;100370.59;5070948;28;20017;-67
2022/03/03 11:24:42;;;;;;;7.78;7.38;;;;;;;3.17;100.00;100363.94;5070908;28;20028;-68
2022/03/03 11:27:09;;;;;;;7.47;7.07;;;;;;;3.42;100.00;100378.38;5072793;28;20028;-67